Albany, Vermont
Current Conditions -  °F | °C
As of 10:35 PM on Friday 24 Oct 2014 (Local Time) from KEFK Reporting Station
Clear Clear  
Wind Chill: 35°   Ceiling: Unl
Heat Index: 35°   Visibility: 10mi
Dew Point: 33°   Wind: 0mph
Humidity: 92%   Direction: NA
Pressure: 29.82"   Gusts: NA
Location:  44.73°N, 72.38°W
Report Text: KEFK 250235Z AUTO 00000KT 10SM CLR 02/01 A2982 RMK AO2 T00180006
Loading
Personal Weather Stations






























Interactive Weather Map
Tropical Storm Tracking
New forecast layout! Learn more

10-Day Weather Forecast

Advertisements
Track Severe Weather on mobile